Time;durP1;ratioP1;P1;durP2;ratioP2;P2;SDS_P1;SDS_P2;PMS_P1;PMS_P2;Temp;Humidity;BMP_temperature;BMP_pressure;BME280_temperature;BME280_humidity;BME280_pressure;Samples;Min_cycle;Max_cycle;Signal;HPM_P1;HPM_P2
2021/03/29 00:01:19;;;;;;;57.28;33.15;;;8.80;56.80;;;;;;5014902;28;20132;-77
2021/03/29 00:03:44;;;;;;;63.50;35.13;;;8.90;56.90;;;;;;5014558;28;20033;-76
2021/03/29 00:06:11;;;;;;;68.03;35.15;;;8.90;56.90;;;;;;5014382;28;20050;-77
2021/03/29 00:08:38;;;;;;;61.67;34.20;;;8.90;56.90;;;;;;5014905;28;20060;-76
2021/03/29 00:11:06;;;;;;;71.45;34.35;;;9.00;56.90;;;;;;5014594;28;20041;-77
2021/03/29 00:13:33;;;;;;;65.78;34.58;;;9.00;56.90;;;;;;5014655;28;20029;-77
2021/03/29 00:16:01;;;;;;;60.67;32.92;;;9.00;57.00;;;;;;5014908;28;20022;-76
2021/03/29 00:18:27;;;;;;;62.78;34.55;;;9.00;57.00;;;;;;5014361;28;20239;-76
2021/03/29 00:21:00;;;;;;;65.40;34.08;;;9.00;57.00;;;;;;5013448;28;20092;-77
2021/03/29 00:23:26;;;;;;;61.58;35.03;;;9.00;57.20;;;;;;5014506;28;20026;-77
2021/03/29 00:25:52;;;;;;;62.45;33.03;;;9.00;57.10;;;;;;5014300;28;20041;-77
2021/03/29 00:28:18;;;;;;;65.57;36.22;;;9.00;57.20;;;;;;5014400;28;20072;-77
2021/03/29 00:30:46;;;;;;;70.75;35.80;;;9.00;57.30;;;;;;5014811;28;20084;-77
2021/03/29 00:33:13;;;;;;;64.15;35.08;;;9.00;57.40;;;;;;5014290;28;20183;-77
2021/03/29 00:35:42;;;;;;;68.20;34.58;;;8.90;57.40;;;;;;5014084;28;20026;-76
2021/03/29 00:38:10;;;;;;;63.15;35.13;;;8.90;57.60;;;;;;5014100;28;20026;-77
2021/03/29 00:40:41;;;;;;;72.82;38.65;;;8.80;57.80;;;;;;5014637;28;20022;-76
2021/03/29 00:43:10;;;;;;;70.88;37.00;;;8.80;57.90;;;;;;5014238;28;20033;-78
2021/03/29 00:45:37;;;;;;;65.28;35.75;;;8.80;58.10;;;;;;5014225;28;20033;-77
2021/03/29 00:48:03;;;;;;;63.20;35.05;;;8.80;58.10;;;;;;5014302;28;20431;-77
2021/03/29 00:51:21;;;;;;;63.53;34.97;;;8.90;58.20;;;;;;5012430;28;20125;-76
2021/03/29 00:53:53;;;;;;;67.55;36.30;;;8.90;58.30;;;;;;4973287;28;20492;-77
2021/03/29 00:56:19;;;;;;;70.47;35.67;;;8.90;58.20;;;;;;5011965;28;20030;-76
2021/03/29 00:58:47;;;;;;;62.72;34.60;;;8.90;58.10;;;;;;5014189;28;20124;-76
2021/03/29 01:01:14;;;;;;;66.80;35.88;;;8.90;58.20;;;;;;5013491;28;20056;-76
2021/03/29 01:03:43;;;;;;;67.60;36.40;;;8.90;58.20;;;;;;5013963;28;20037;-77
2021/03/29 01:06:16;;;;;;;65.70;35.78;;;8.90;58.40;;;;;;5013793;28;20096;-77
2021/03/29 01:08:45;;;;;;;67.60;36.38;;;8.90;58.60;;;;;;5013908;28;20061;-77
2021/03/29 01:11:19;;;;;;;73.07;37.20;;;8.80;58.50;;;;;;5013729;28;20084;-76
2021/03/29 01:13:51;;;;;;;80.43;40.63;;;8.80;58.70;;;;;;5012646;28;20030;-77
2021/03/29 01:16:20;;;;;;;72.40;40.63;;;8.90;58.80;;;;;;5014136;28;20057;-77
2021/03/29 01:18:50;;;;;;;75.43;39.53;;;8.80;58.90;;;;;;5013698;28;20135;-77
2021/03/29 01:21:52;;;;;;;78.72;43.58;;;8.80;59.00;;;;;;5013767;28;20048;-77
2021/03/29 01:24:24;;;;;;;75.15;39.70;;;8.80;59.40;;;;;;5013510;28;20123;-77
2021/03/29 01:26:51;;;;;;;88.47;46.72;;;8.80;59.40;;;;;;5013377;28;20033;-77
2021/03/29 01:29:19;;;;;;;93.70;47.72;;;8.70;59.50;;;;;;5013379;28;20038;-76
2021/03/29 01:31:47;;;;;;;84.65;47.47;;;8.70;59.80;;;;;;5012328;28;20159;-77
2021/03/29 01:34:15;;;;;;;84.63;46.20;;;8.60;60.00;;;;;;5013439;28;20491;-76
2021/03/29 01:36:44;;;;;;;81.43;43.40;;;8.60;60.30;;;;;;5013433;28;20084;-77
2021/03/29 01:39:12;;;;;;;78.35;44.00;;;8.60;60.50;;;;;;5017468;28;20034;-77
2021/03/29 01:41:40;;;;;;;77.47;42.90;;;8.50;60.70;;;;;;5017720;28;20026;-77
2021/03/29 01:44:06;;;;;;;84.65;41.45;;;8.50;60.80;;;;;;5017775;28;20037;-77
2021/03/29 01:46:32;;;;;;;74.30;41.03;;;8.50;61.10;;;;;;5018046;28;20081;-76
2021/03/29 01:48:59;;;;;;;71.10;40.17;;;8.50;61.30;;;;;;5016000;28;20030;-76
2021/03/29 01:51:25;;;;;;;80.57;41.90;;;8.40;61.40;;;;;;5016299;28;20029;-77
2021/03/29 01:53:52;;;;;;;66.90;39.95;;;8.40;61.60;;;;;;5017442;28;20034;-76
2021/03/29 01:56:18;;;;;;;71.30;39.28;;;8.40;61.70;;;;;;5017252;28;20037;-77
2021/03/29 01:58:43;;;;;;;69.30;38.17;;;8.40;61.90;;;;;;5015778;28;20030;-76
2021/03/29 02:01:11;;;;;;;68.72;37.97;;;8.40;62.00;;;;;;5017126;28;20111;-77
2021/03/29 02:03:40;;;;;;;70.35;37.85;;;8.30;62.10;;;;;;5017390;28;20033;-77
2021/03/29 02:06:06;;;;;;;64.72;36.53;;;8.30;62.10;;;;;;5017215;28;20037;-77
2021/03/29 02:08:34;;;;;;;67.57;35.47;;;8.30;62.30;;;;;;5017258;28;20368;-76
2021/03/29 02:11:01;;;;;;;64.85;35.25;;;8.30;62.40;;;;;;5017113;28;20030;-76
2021/03/29 02:13:32;;;;;;;71.00;36.78;;;8.30;62.40;;;;;;5015924;28;20044;-77
2021/03/29 02:16:03;;;;;;;62.42;34.00;;;8.30;62.60;;;;;;5015783;28;20030;-76
2021/03/29 02:18:40;;;;;;;58.72;34.15;;;8.30;62.60;;;;;;5016954;28;20033;-77
2021/03/29 02:21:13;;;;;;;67.63;35.45;;;8.30;62.70;;;;;;5017065;28;20463;-76
2021/03/29 02:23:42;;;;;;;62.63;34.80;;;8.30;62.70;;;;;;5017055;28;20041;-77
2021/03/29 02:26:09;;;;;;;65.00;35.90;;;8.30;62.60;;;;;;5016737;28;20037;-76
2021/03/29 02:28:35;;;;;;;70.78;39.92;;;8.30;62.70;;;;;;5016970;28;20033;-76
2021/03/29 02:31:03;;;;;;;80.05;43.58;;;8.30;62.70;;;;;;5016907;28;20034;-76
2021/03/29 02:33:31;;;;;;;61.58;36.13;;;8.30;62.80;;;;;;5016555;28;20036;-77
2021/03/29 02:35:57;;;;;;;69.47;38.40;;;8.30;62.90;;;;;;5013303;28;20049;-77
2021/03/29 02:38:23;;;;;;;69.32;37.67;;;8.40;63.00;;;;;;5016411;28;20389;-77
2021/03/29 02:40:51;;;;;;;82.75;43.90;;;8.40;63.10;;;;;;5019450;28;20079;-77
2021/03/29 02:43:19;;;;;;;73.65;42.13;;;8.40;63.20;;;;;;5024073;28;20038;-78
2021/03/29 02:45:54;;;;;;;83.88;45.28;;;8.40;63.30;;;;;;5026120;28;20051;-77
2021/03/29 02:48:24;;;;;;;86.30;44.63;;;8.40;63.60;;;;;;5021878;28;20073;-77
2021/03/29 02:50:52;;;;;;;93.65;46.75;;;8.40;63.60;;;;;;5024956;28;20033;-77
2021/03/29 02:53:22;;;;;;;92.78;48.53;;;8.40;63.70;;;;;;5024474;28;20041;-78
2021/03/29 02:55:49;;;;;;;86.88;44.80;;;8.30;63.90;;;;;;5023634;28;21117;-77
2021/03/29 02:58:21;;;;;;;94.13;48.90;;;8.30;64.00;;;;;;5021444;28;20022;-77
2021/03/29 03:00:47;;;;;;;87.28;44.33;;;8.30;64.30;;;;;;5023594;28;20029;-78
2021/03/29 03:03:13;;;;;;;79.82;41.80;;;8.30;64.30;;;;;;5025624;28;20076;-77
2021/03/29 03:05:40;;;;;;;71.95;38.30;;;8.20;64.40;;;;;;5024788;28;20033;-78
2021/03/29 03:08:07;;;;;;;69.68;38.63;;;8.20;64.70;;;;;;5024444;28;20017;-77
2021/03/29 03:10:34;;;;;;;69.82;36.42;;;8.10;64.90;;;;;;5025506;28;20566;-78
2021/03/29 03:13:06;;;;;;;64.85;34.45;;;8.10;65.20;;;;;;5024659;28;20419;-76
2021/03/29 03:15:32;;;;;;;69.15;35.83;;;8.00;65.30;;;;;;5025982;28;20029;-77
2021/03/29 03:18:00;;;;;;;61.05;34.17;;;8.00;65.40;;;;;;5024463;28;20060;-78
2021/03/29 03:20:31;;;;;;;64.82;34.40;;;7.90;65.60;;;;;;5023321;28;20031;-76
2021/03/29 03:22:58;;;;;;;65.63;34.05;;;7.90;65.90;;;;;;5021147;28;20397;-78
2021/03/29 03:25:30;;;;;;;70.53;38.65;;;7.80;65.80;;;;;;5023331;28;20387;-76
2021/03/29 03:27:59;;;;;;;71.47;33.97;;;7.80;66.00;;;;;;5052904;28;20026;-77
2021/03/29 03:30:29;;;;;;;71.00;36.72;;;7.70;66.00;;;;;;5023601;28;20029;-77
2021/03/29 03:32:55;;;;;;;72.45;37.70;;;7.70;66.20;;;;;;5020465;28;20080;-77
2021/03/29 03:35:22;;;;;;;70.88;35.05;;;7.70;66.20;;;;;;5023664;28;20026;-77
2021/03/29 03:38:14;;;;;;;73.18;35.05;;;7.60;66.30;;;;;;5023387;28;20072;-77
2021/03/29 03:40:43;;;;;;;69.80;34.92;;;7.60;66.50;;;;;;5022730;28;20474;-78
2021/03/29 03:43:11;;;;;;;69.85;34.25;;;7.50;66.30;;;;;;5024669;28;20030;-77
2021/03/29 03:45:47;;;;;;;74.03;34.10;;;7.50;66.40;;;;;;5020713;28;20029;-79
2021/03/29 03:48:14;;;;;;;62.85;31.63;;;7.40;66.70;;;;;;5025688;28;20104;-77
2021/03/29 03:50:44;;;;;;;63.20;31.48;;;7.40;66.60;;;;;;5034820;28;20025;-78
2021/03/29 03:53:10;;;;;;;60.13;30.00;;;7.30;66.80;;;;;;5034889;28;20033;-77
2021/03/29 03:55:37;;;;;;;56.10;30.70;;;7.30;66.80;;;;;;5034844;28;20254;-77
2021/03/29 03:58:04;;;;;;;52.40;28.15;;;7.30;66.90;;;;;;5034453;28;20044;-77
2021/03/29 04:00:30;;;;;;;52.53;27.67;;;7.30;67.10;;;;;;5034097;28;20026;-77
2021/03/29 04:02:56;;;;;;;52.92;28.58;;;7.30;67.20;;;;;;5034768;28;20045;-77
2021/03/29 04:05:21;;;;;;;53.00;27.90;;;7.30;67.30;;;;;;5034092;28;20419;-78
2021/03/29 04:07:49;;;;;;;50.58;27.77;;;7.30;67.40;;;;;;5034464;28;20040;-76
2021/03/29 04:10:25;;;;;;;57.47;26.88;;;7.30;67.40;;;;;;5034380;28;20030;-83
2021/03/29 04:12:53;;;;;;;56.20;27.55;;;7.30;67.40;;;;;;5033110;28;20026;-77
2021/03/29 04:15:19;;;;;;;52.80;26.88;;;7.40;67.50;;;;;;5032807;28;20083;-77
2021/03/29 04:17:45;;;;;;;55.45;28.90;;;7.50;67.60;;;;;;5034396;28;20029;-76
2021/03/29 04:20:12;;;;;;;58.38;28.67;;;7.50;67.50;;;;;;5034272;28;20035;-77
2021/03/29 04:22:37;;;;;;;55.58;27.10;;;7.60;67.50;;;;;;5033868;28;20038;-78
2021/03/29 04:25:09;;;;;;;48.95;26.92;;;7.70;67.50;;;;;;5034095;28;20034;-78
2021/03/29 04:27:36;;;;;;;55.65;27.67;;;7.70;67.50;;;;;;5033939;28;20042;-77
2021/03/29 04:30:04;;;;;;;52.38;26.95;;;7.90;67.40;;;;;;5034003;28;20379;-77
2021/03/29 04:32:29;;;;;;;54.75;28.15;;;7.90;67.20;;;;;;5033679;28;20132;-77
2021/03/29 04:34:55;;;;;;;54.33;28.70;;;8.00;66.90;;;;;;5033785;28;20499;-77
2021/03/29 04:37:21;;;;;;;50.63;26.70;;;8.10;66.70;;;;;;5033905;28;20108;-78
2021/03/29 04:39:46;;;;;;;51.47;25.95;;;8.20;66.50;;;;;;5033646;28;20029;-77
2021/03/29 04:42:12;;;;;;;51.58;25.88;;;8.30;66.30;;;;;;5034079;28;20033;-77
2021/03/29 04:44:38;;;;;;;44.63;24.23;;;8.30;66.10;;;;;;5032287;28;20367;-77
2021/03/29 04:47:03;;;;;;;44.92;23.00;;;8.40;65.80;;;;;;5030583;28;20030;-79
2021/03/29 04:49:29;;;;;;;45.10;25.02;;;8.40;65.60;;;;;;5021400;28;20030;-78
2021/03/29 04:51:55;;;;;;;42.08;23.45;;;8.50;65.90;;;;;;5023856;28;20021;-77
2021/03/29 04:54:21;;;;;;;38.42;22.75;;;8.60;65.20;;;;;;5025593;28;20025;-78
2021/03/29 04:56:46;;;;;;;40.53;23.27;;;8.60;65.00;;;;;;5023658;28;20029;-78
2021/03/29 04:59:12;;;;;;;43.65;22.10;;;8.70;64.90;;;;;;5021385;28;20395;-78
2021/03/29 05:01:38;;;;;;;45.22;22.42;;;8.70;64.60;;;;;;5024112;28;20483;-77
2021/03/29 05:04:04;;;;;;;39.28;22.75;;;8.80;64.50;;;;;;5023954;28;20035;-78
2021/03/29 05:06:31;;;;;;;41.42;23.65;;;8.80;64.40;;;;;;5014659;28;20038;-78
2021/03/29 05:08:57;;;;;;;39.28;23.13;;;8.90;64.30;;;;;;5013405;28;20030;-78
2021/03/29 05:11:24;;;;;;;39.75;21.55;;;8.90;64.00;;;;;;5011709;28;20030;-78
2021/03/29 05:13:49;;;;;;;32.38;18.88;;;8.90;63.70;;;;;;5012315;28;20084;-76
2021/03/29 05:16:15;;;;;;;40.22;21.55;;;9.00;63.40;;;;;;5013401;28;20030;-76
2021/03/29 05:18:41;;;;;;;39.63;21.42;;;9.00;63.10;;;;;;5013153;28;20030;-76
2021/03/29 05:21:06;;;;;;;44.03;21.58;;;9.00;63.00;;;;;;5013071;28;20127;-78
2021/03/29 05:23:32;;;;;;;34.17;19.90;;;9.10;63.40;;;;;;5013234;28;20387;-77
2021/03/29 05:25:58;;;;;;;33.67;19.40;;;9.20;62.50;;;;;;5013492;28;20033;-77
2021/03/29 05:28:24;;;;;;;31.00;17.77;;;9.20;62.10;;;;;;5013721;28;20384;-78
2021/03/29 05:30:49;;;;;;;33.45;19.38;;;9.30;61.90;;;;;;5013698;28;20041;-77
2021/03/29 05:33:15;;;;;;;33.30;19.45;;;9.30;61.50;;;;;;5013316;28;20046;-78
2021/03/29 05:35:41;;;;;;;36.97;18.70;;;9.40;61.30;;;;;;5013776;28;20030;-78
2021/03/29 05:38:06;;;;;;;36.10;19.45;;;9.40;60.90;;;;;;5013388;28;20033;-78
2021/03/29 05:40:32;;;;;;;39.17;19.15;;;9.50;60.60;;;;;;5013020;28;20371;-77
2021/03/29 05:42:58;;;;;;;34.92;18.60;;;9.50;60.70;;;;;;5013097;28;20080;-78
2021/03/29 05:45:30;;;;;;;33.17;17.92;;;9.60;60.30;;;;;;5012203;28;20038;-79
2021/03/29 05:47:56;;;;;;;34.00;18.65;;;9.70;60.00;;;;;;5013242;28;20030;-77
2021/03/29 05:50:23;;;;;;;36.17;19.25;;;9.80;59.80;;;;;;5013261;28;20112;-77
2021/03/29 05:52:49;;;;;;;35.15;19.60;;;9.90;59.50;;;;;;5011943;28;20030;-78
2021/03/29 05:55:20;;;;;;;32.50;18.83;;;10.00;59.30;;;;;;5028164;28;20464;-77
2021/03/29 06:00:33;;;;;;;34.42;19.15;;;10.10;58.60;;;;;;5013217;28;20030;-77
2021/03/29 06:03:18;;;;;;;42.55;19.50;;;10.20;58.30;;;;;;5012718;28;20403;-77
2021/03/29 06:05:43;;;;;;;39.30;19.45;;;10.30;58.10;;;;;;5013149;28;20045;-77
2021/03/29 06:08:09;;;;;;;30.08;17.83;;;10.30;58.00;;;;;;5012906;28;20029;-77
2021/03/29 06:10:35;;;;;;;36.58;19.50;;;10.40;57.80;;;;;;5013079;28;20018;-77
2021/03/29 06:13:17;;;;;;;36.60;19.83;;;10.50;57.60;;;;;;5012991;28;20506;-78
2021/03/29 06:15:44;;;;;;;47.95;19.10;;;10.50;57.30;;;;;;5012995;28;20486;-78
2021/03/29 06:18:17;;;;;;;34.65;19.00;;;10.70;57.30;;;;;;5012963;28;20103;-77
2021/03/29 06:21:11;;;;;;;29.60;18.42;;;10.80;57.10;;;;;;5012316;28;20507;-76
2021/03/29 06:23:40;;;;;;;39.40;20.27;;;10.90;56.90;;;;;;4994190;28;20041;-77
2021/03/29 06:26:17;;;;;;;36.92;18.55;;;11.00;56.70;;;;;;4996903;28;20038;-77
2021/03/29 06:28:43;;;;;;;38.72;19.48;;;11.20;56.40;;;;;;4996725;28;20358;-77
2021/03/29 06:31:30;;;;;;;35.55;20.00;;;11.40;56.20;;;;;;5014650;28;20049;-77
2021/03/29 06:33:57;;;;;;;39.70;19.92;;;11.50;55.70;;;;;;5015937;28;20041;-78
2021/03/29 06:36:30;;;;;;;45.88;21.52;;;11.70;55.50;;;;;;5016457;28;20432;-78
2021/03/29 06:39:21;;;;;;;38.60;21.45;;;11.80;55.10;;;;;;5015100;28;20384;-78
2021/03/29 06:41:57;;;;;;;34.53;20.15;;;11.90;54.70;;;;;;5016063;28;20065;-77
2021/03/29 06:44:34;;;;;;;40.05;21.05;;;12.00;54.50;;;;;;5015975;28;20122;-77
2021/03/29 06:47:13;;;;;;;40.30;20.17;;;12.10;54.20;;;;;;5016338;28;20056;-78
2021/03/29 06:49:48;;;;;;;34.45;19.63;;;12.20;54.00;;;;;;5018105;28;20042;-77
2021/03/29 06:52:29;;;;;;;40.50;21.27;;;12.30;53.80;;;;;;5026996;28;20117;-77
2021/03/29 06:55:16;;;;;;;50.05;21.60;;;12.40;53.50;;;;;;5029781;28;20044;-79
2021/03/29 06:57:42;;;;;;;40.80;21.25;;;12.50;53.20;;;;;;5026026;28;20037;-78
2021/03/29 07:00:29;;;;;;;34.05;20.48;;;12.60;53.00;;;;;;5026042;28;20472;-78
2021/03/29 07:02:58;;;;;;;44.38;20.98;;;12.60;52.70;;;;;;5030236;28;20045;-77
2021/03/29 07:05:25;;;;;;;32.90;20.05;;;12.70;52.60;;;;;;5023822;28;20421;-78
2021/03/29 07:07:52;;;;;;;40.25;21.70;;;12.70;52.30;;;;;;5025377;28;20013;-79
2021/03/29 07:10:17;;;;;;;48.65;21.05;;;12.80;52.20;;;;;;5024311;28;20100;-77
2021/03/29 07:12:45;;;;;;;34.80;21.02;;;12.80;52.10;;;;;;5021049;28;20054;-78
2021/03/29 07:15:13;;;;;;;34.22;20.98;;;12.90;52.00;;;;;;5023066;28;20407;-77
2021/03/29 07:17:43;;;;;;;41.85;20.58;;;12.90;51.90;;;;;;5024753;28;20130;-77
2021/03/29 07:20:12;;;;;;;34.10;20.55;;;13.00;51.70;;;;;;5025556;28;20056;-77
2021/03/29 07:22:40;;;;;;;36.88;21.60;;;13.10;51.50;;;;;;5022202;28;20463;-77
2021/03/29 07:25:09;;;;;;;46.05;23.50;;;13.20;51.30;;;;;;5022794;28;20029;-80
2021/03/29 07:27:41;;;;;;;41.20;22.65;;;13.30;51.10;;;;;;5021009;28;20084;-77
2021/03/29 07:30:07;;;;;;;37.17;21.67;;;13.40;51.00;;;;;;5022870;28;20110;-77
2021/03/29 07:32:34;;;;;;;41.53;23.35;;;13.50;50.70;;;;;;5020569;28;20058;-78
2021/03/29 07:35:01;;;;;;;47.10;25.02;;;13.70;50.40;;;;;;5005898;28;20021;-77
2021/03/29 07:37:43;;;;;;;42.60;22.92;;;13.80;50.20;;;;;;5024820;28;20116;-78
2021/03/29 07:40:18;;;;;;;36.05;21.10;;;13.90;49.80;;;;;;5021465;28;20018;-77
2021/03/29 07:42:45;;;;;;;41.33;22.45;;;14.10;49.60;;;;;;5023293;28;20104;-79
2021/03/29 07:45:16;;;;;;;42.97;22.25;;;14.20;49.40;;;;;;5024762;28;20075;-77
2021/03/29 07:47:47;;;;;;;38.83;22.50;;;14.30;49.10;;;;;;5022098;28;20104;-77
2021/03/29 07:50:33;;;;;;;38.60;22.77;;;14.40;49.00;;;;;;5020030;28;20022;-77
2021/03/29 07:53:19;;;;;;;38.65;22.70;;;14.50;48.70;;;;;;5014048;28;20396;-78
2021/03/29 07:55:48;;;;;;;39.38;22.80;;;14.70;48.40;;;;;;5021033;28;20096;-77
2021/03/29 07:58:19;;;;;;;49.28;24.42;;;14.90;48.20;;;;;;5018640;28;20376;-77
2021/03/29 08:01:07;;;;;;;41.60;21.70;;;15.00;47.90;;;;;;5022344;28;20103;-79
2021/03/29 08:03:37;;;;;;;51.67;22.67;;;15.20;47.50;;;;;;5051278;28;20483;-78
2021/03/29 08:06:03;;;;;;;67.22;30.25;;;15.40;47.20;;;;;;5022759;28;20032;-78
2021/03/29 08:08:33;;;;;;;45.25;23.70;;;15.60;47.00;;;;;;5023955;28;20033;-77
2021/03/29 08:11:03;;;;;;;44.70;23.05;;;15.80;46.50;;;;;;5022590;28;20029;-78
2021/03/29 08:13:53;;;;;;;56.80;23.38;;;16.00;46.10;;;;;;5021778;28;20025;-78
2021/03/29 08:16:22;;;;;;;45.75;23.42;;;16.30;45.70;;;;;;5021121;28;20030;-78
2021/03/29 08:19:17;;;;;;;45.58;23.98;;;16.50;45.40;;;;;;5021782;28;20017;-77
2021/03/29 08:21:55;;;;;;;49.80;24.75;;;16.80;45.00;;;;;;5021939;28;20025;-78
2021/03/29 08:24:29;;;;;;;46.90;25.85;;;17.20;44.60;;;;;;5021674;28;20049;-78
2021/03/29 08:26:57;;;;;;;41.83;22.85;;;17.50;44.90;;;;;;5019818;28;20399;-78
2021/03/29 08:29:29;;;;;;;50.97;22.98;;;18.00;44.00;;;;;;5022936;28;20037;-78
2021/03/29 08:32:06;;;;;;;39.65;22.40;;;18.60;43.50;;;;;;5019691;28;20068;-78
2021/03/29 08:34:35;;;;;;;42.30;21.33;;;19.20;43.10;;;;;;5021487;28;20495;-78
2021/03/29 08:37:06;;;;;;;32.83;21.17;;;19.90;42.70;;;;;;5022785;28;20450;-78
2021/03/29 08:39:35;;;;;;;52.63;21.98;;;20.80;42.00;;;;;;5021350;28;20057;-78
2021/03/29 08:42:01;;;;;;;35.13;20.95;;;21.70;41.30;;;;;;5022844;28;20044;-77
2021/03/29 08:44:28;;;;;;;33.60;20.02;;;22.60;40.20;;;;;;5023010;28;20064;-78
2021/03/29 08:46:55;;;;;;;32.97;19.67;;;23.40;38.90;;;;;;5016901;28;20437;-77
2021/03/29 08:49:21;;;;;;;28.25;19.25;;;24.30;37.80;;;;;;5022537;28;20018;-78
2021/03/29 08:51:50;;;;;;;30.98;20.25;;;25.10;36.70;;;;;;5023247;28;20424;-78
2021/03/29 08:54:16;;;;;;;34.53;19.63;;;25.70;35.70;;;;;;5023248;28;20494;-78
2021/03/29 08:56:51;;;;;;;42.10;19.70;;;26.40;35.10;;;;;;5020797;28;20024;-77
2021/03/29 08:59:25;;;;;;;33.53;20.17;;;27.10;34.10;;;;;;5019454;28;20022;-79
2021/03/29 09:01:51;;;;;;;58.47;25.08;;;27.70;33.50;;;;;;5021209;28;20076;-78
2021/03/29 09:04:17;;;;;;;36.85;20.60;;;28.20;32.90;;;;;;5025704;28;20029;-78
2021/03/29 09:06:42;;;;;;;61.42;22.70;;;28.70;32.20;;;;;;5022257;28;20041;-78
2021/03/29 09:09:17;;;;;;;38.15;24.00;;;29.10;31.70;;;;;;5024169;28;20091;-78
2021/03/29 09:11:46;;;;;;;56.38;26.23;;;29.50;31.00;;;;;;5021100;28;20077;-78
2021/03/29 09:14:19;;;;;;;44.30;23.75;;;29.80;30.80;;;;;;5020702;28;20076;-78
2021/03/29 09:16:46;;;;;;;48.58;25.13;;;30.10;30.30;;;;;;5021091;28;20106;-78
2021/03/29 09:19:20;;;;;;;31.95;21.60;;;30.50;30.20;;;;;;5022821;28;20025;-78
2021/03/29 09:21:54;;;;;;;26.52;19.15;;;30.80;29.70;;;;;;5019346;28;20022;-81
2021/03/29 09:24:21;;;;;;;27.00;19.30;;;31.10;29.40;;;;;;5021236;28;20037;-78
2021/03/29 09:27:07;;;;;;;31.80;19.75;;;31.40;29.40;;;;;;5022427;28;20037;-78
2021/03/29 09:29:41;;;;;;;41.47;18.20;;;31.60;29.00;;;;;;5021667;28;20030;-79
2021/03/29 09:32:16;;;;;;;44.38;21.23;;;31.70;28.90;;;;;;5020940;28;20021;-77
2021/03/29 09:34:46;;;;;;;40.90;18.85;;;31.80;28.60;;;;;;5018296;28;20038;-78
2021/03/29 09:37:26;;;;;;;32.58;20.17;;;32.10;28.50;;;;;;5021650;28;20021;-78
2021/03/29 09:40:01;;;;;;;60.30;18.05;;;32.30;28.20;;;;;;5019719;28;20033;-76
2021/03/29 09:42:44;;;;;;;29.45;17.08;;;32.50;28.10;;;;;;5019612;28;20065;-81
2021/03/29 09:45:14;;;;;;;;;;;32.70;27.80;;;;;;5020624;28;20033;-78
2021/03/29 09:47:40;;;;;;;38.15;16.92;;;32.90;28.70;;;;;;5020834;28;19933;-77
2021/03/29 09:50:09;;;;;;;37.85;22.30;;;33.10;27.90;;;;;;5023774;28;20457;-78
2021/03/29 09:52:44;;;;;;;29.70;15.02;;;33.30;27.50;;;;;;5020875;28;20067;-79
2021/03/29 09:55:11;;;;;;;25.13;14.32;;;33.30;27.20;;;;;;5035232;28;20030;-78
2021/03/29 09:57:43;;;;;;;24.40;15.32;;;33.60;27.20;;;;;;5021398;28;20030;-79
2021/03/29 10:00:20;;;;;;;22.52;15.07;;;33.90;27.00;;;;;;5025859;28;20030;-78
2021/03/29 10:02:47;;;;;;;31.70;14.65;;;34.20;26.60;;;;;;5023378;28;20050;-81
2021/03/29 10:05:15;;;;;;;18.38;13.30;;;34.30;26.70;;;;;;5025423;28;20060;-76
2021/03/29 10:07:54;;;;;;;26.45;12.60;;;34.50;26.50;;;;;;5027207;28;20026;-78
2021/03/29 10:10:31;;;;;;;17.55;11.73;;;34.80;26.20;;;;;;5024922;28;20464;-78
2021/03/29 10:13:13;;;;;;;24.83;12.20;;;35.10;26.10;;;;;;5024723;28;20115;-79
2021/03/29 10:15:41;;;;;;;30.60;12.30;;;35.10;25.90;;;;;;5025506;28;20432;-79
2021/03/29 10:18:12;;;;;;;45.55;13.60;;;35.20;25.90;;;;;;5023835;28;20026;-77
2021/03/29 10:20:41;;;;;;;19.45;11.07;;;35.30;25.70;;;;;;5017317;28;20029;-78
2021/03/29 10:23:30;;;;;;;23.42;12.32;;;35.40;25.60;;;;;;5016281;28;20034;-77
2021/03/29 10:26:20;;;;;;;23.38;11.77;;;35.50;25.50;;;;;;5016350;28;20492;-78
2021/03/29 10:28:54;;;;;;;29.65;11.55;;;35.60;25.40;;;;;;5016351;28;20022;-78
2021/03/29 10:31:20;;;;;;;16.75;11.25;;;35.90;25.30;;;;;;5018810;28;20058;-78
2021/03/29 10:33:46;;;;;;;15.63;10.75;;;35.90;25.30;;;;;;5027083;28;20063;-78
2021/03/29 10:36:16;;;;;;;27.50;12.32;;;36.00;25.30;;;;;;5025662;28;20105;-78
2021/03/29 10:38:42;;;;;;;14.27;11.23;;;36.10;25.30;;;;;;5024792;28;20093;-79
2021/03/29 10:41:08;;;;;;;17.35;10.75;;;36.30;25.30;;;;;;5023216;28;20045;-78
2021/03/29 10:43:34;;;;;;;26.52;11.15;;;36.60;25.10;;;;;;5024726;28;20026;-78
2021/03/29 10:46:00;;;;;;;12.02;9.68;;;36.80;25.00;;;;;;5026211;28;20415;-78
2021/03/29 10:48:26;;;;;;;16.00;10.13;;;36.90;24.70;;;;;;5024839;28;20104;-79
2021/03/29 10:50:51;;;;;;;15.52;9.90;;;37.10;24.70;;;;;;5025483;28;20460;-79
2021/03/29 10:53:17;;;;;;;11.30;9.40;;;37.20;24.60;;;;;;5023640;28;20030;-79
2021/03/29 10:55:43;;;;;;;12.27;8.63;;;37.40;24.60;;;;;;5024693;28;20071;-78
2021/03/29 10:58:09;;;;;;;18.52;9.02;;;37.60;24.40;;;;;;5024525;28;20026;-79
2021/03/29 11:00:34;;;;;;;12.82;9.25;;;37.70;24.20;;;;;;5023093;28;20522;-78
2021/03/29 11:03:00;;;;;;;9.68;7.82;;;37.60;24.00;;;;;;5025213;28;20021;-78
2021/03/29 11:05:26;;;;;;;25.80;9.27;;;37.70;23.90;;;;;;5035679;28;20116;-78
2021/03/29 11:07:52;;;;;;;13.25;8.38;;;37.50;23.80;;;;;;5034202;28;20029;-78
2021/03/29 11:10:17;;;;;;;37.08;9.40;;;37.40;23.80;;;;;;5031495;28;20168;-78
2021/03/29 11:12:43;;;;;;;12.00;7.47;;;37.30;23.70;;;;;;5024846;28;20030;-78
2021/03/29 11:15:09;;;;;;;14.45;8.27;;;37.30;23.60;;;;;;5022073;28;20122;-78
2021/03/29 11:17:37;;;;;;;21.50;8.18;;;37.40;23.60;;;;;;5016789;28;20037;-78
2021/03/29 11:20:04;;;;;;;34.58;9.20;;;37.60;23.50;;;;;;5015574;28;20064;-78
2021/03/29 11:22:31;;;;;;;22.70;8.55;;;37.70;23.40;;;;;;5015275;28;20030;-80
2021/03/29 11:24:56;;;;;;;13.48;7.70;;;37.90;23.30;;;;;;5015071;28;20523;-78
2021/03/29 11:27:22;;;;;;;20.95;7.95;;;38.10;23.30;;;;;;5015764;28;20072;-79
2021/03/29 11:29:48;;;;;;;9.68;7.13;;;38.30;23.20;;;;;;5015256;28;20088;-79
2021/03/29 11:32:14;;;;;;;8.88;7.43;;;38.50;23.10;;;;;;5015864;28;20037;-78
2021/03/29 11:34:39;;;;;;;11.20;7.32;;;38.60;23.00;;;;;;5015341;28;20053;-79
2021/03/29 11:37:05;;;;;;;15.27;7.47;;;38.60;23.00;;;;;;5014012;28;20057;-78
2021/03/29 11:39:31;;;;;;;26.05;8.13;;;38.50;23.00;;;;;;5015113;28;20105;-79
2021/03/29 11:41:57;;;;;;;7.97;6.80;;;38.40;22.90;;;;;;5015041;28;20029;-80
2021/03/29 11:44:22;;;;;;;15.10;7.03;;;38.20;22.70;;;;;;5014639;28;20033;-78
2021/03/29 11:46:48;;;;;;;34.17;8.02;;;38.20;22.60;;;;;;5014942;28;20056;-79
2021/03/29 11:49:14;;;;;;;19.13;8.18;;;38.30;22.50;;;;;;5015151;28;20050;-77
2021/03/29 11:51:40;;;;;;;18.55;7.63;;;38.30;22.50;;;;;;5014471;28;20490;-80
2021/03/29 11:54:06;;;;;;;14.68;7.15;;;38.20;22.50;;;;;;5014420;28;20041;-79
2021/03/29 11:56:39;;;;;;;18.10;7.15;;;38.20;22.50;;;;;;5013553;28;20365;-78
2021/03/29 11:59:06;;;;;;;;;;;38.10;22.20;;;;;;5015013;28;20029;-78
2021/03/29 12:04:15;;;;;;;20.33;7.63;;;38.00;22.30;;;;;;5013615;28;20049;-78
2021/03/29 12:07:17;;;;;;;23.10;7.47;;;37.90;22.20;;;;;;5013688;28;20387;-78
2021/03/29 12:09:45;;;;;;;16.48;6.57;;;37.60;22.10;;;;;;5012487;28;20076;-79
2021/03/29 12:12:12;;;;;;;11.98;7.05;;;37.30;22.10;;;;;;5013491;28;20033;-79
2021/03/29 12:14:38;;;;;;;15.13;6.90;;;37.00;22.10;;;;;;5013506;28;20053;-78
2021/03/29 12:17:10;;;;;;;18.55;7.03;;;36.80;22.20;;;;;;5014510;28;20034;-78
2021/03/29 12:19:41;;;;;;;14.75;6.15;;;36.90;22.30;;;;;;5014491;28;20038;-78
2021/03/29 12:22:15;;;;;;;53.22;8.82;;;36.90;22.20;;;;;;5020150;28;20032;-78
2021/03/29 12:24:44;;;;;;;27.90;6.88;;;36.90;22.10;;;;;;5031657;28;20518;-79
2021/03/29 12:27:12;;;;;;;11.70;6.85;;;37.10;22.10;;;;;;5035560;28;20029;-78
2021/03/29 12:29:40;;;;;;;16.17;6.35;;;37.30;22.10;;;;;;5037285;28;20029;-79
2021/03/29 12:32:14;;;;;;;26.10;6.60;;;37.50;22.00;;;;;;5034349;28;20040;-78
2021/03/29 12:34:46;;;;;;;26.95;6.82;;;37.50;21.80;;;;;;5034045;28;20116;-79
2021/03/29 12:37:14;;;;;;;21.10;6.50;;;37.50;21.70;;;;;;5034196;28;20033;-78
2021/03/29 12:39:55;;;;;;;9.45;5.18;;;37.40;21.70;;;;;;5034205;28;20029;-79
2021/03/29 12:42:26;;;;;;;22.80;6.00;;;37.40;21.60;;;;;;5034269;28;20435;-78
2021/03/29 12:44:54;;;;;;;17.15;6.00;;;37.30;21.50;;;;;;5024980;28;20057;-78
2021/03/29 12:47:25;;;;;;;11.68;4.95;;;37.30;21.60;;;;;;5025515;28;20077;-77
2021/03/29 12:49:51;;;;;;;12.57;5.30;;;37.10;21.40;;;;;;5014099;28;20394;-78
2021/03/29 12:52:17;;;;;;;34.22;6.18;;;36.30;21.30;;;;;;5014084;28;20140;-79